LAN251 TBPB-SCEL
Flight info
| Callsign | LAN251 |
|---|---|
| Flight time | N/A |
| Altitude | 35000 |
| Route | KEDMI DCT MASEP DCT EGEMA UA632 TIM UL322 ASIMO ASIMO7D |
| Aircraft | A321/M-SDE3FGHIRWY/LB1 |
Departure
| Time | N/A |
|---|---|
| Airport | Grantley Adams International Airport (TBPB) |
Arrival
| Time | 2026-04-30 22:29 |
|---|---|
| Airport | Comodoro Arturo Merino Benítez International Airport (SCEL) |
| Time | Latitude | Longitude | Altitude | Speed | Heading |
|---|---|---|---|---|---|
| 2026-04-30 18:40 | -7.45175 | -61.14594 | 34860 ft | 460 kts | 192° |
| 2026-04-30 18:40 | -7.48299 | -61.15304 | 34863 ft | 460 kts | 192° |
| 2026-04-30 18:41 | -7.54512 | -61.16713 | 34866 ft | 460 kts | 192° |
| 2026-04-30 18:41 | -7.60775 | -61.18131 | 34867 ft | 460 kts | 192° |
| 2026-04-30 18:42 | -7.66979 | -61.19540 | 34873 ft | 459 kts | 192° |
| 2026-04-30 18:42 | -7.76355 | -61.21675 | 34875 ft | 459 kts | 193° |
| 2026-04-30 18:45 | -8.10526 | -61.29453 | 34882 ft | 459 kts | 192° |
| 2026-04-30 18:46 | -8.16774 | -61.30877 | 34877 ft | 458 kts | 193° |
| 2026-04-30 18:46 | -8.22999 | -61.32296 | 34875 ft | 458 kts | 193° |
| 2026-04-30 18:47 | -8.29170 | -61.33704 | 34874 ft | 457 kts | 193° |
| 2026-04-30 18:47 | -8.35394 | -61.35124 | 34868 ft | 457 kts | 193° |
| 2026-04-30 18:48 | -8.41612 | -61.36539 | 34867 ft | 457 kts | 193° |
| 2026-04-30 18:48 | -8.47803 | -61.37947 | 34869 ft | 458 kts | 193° |
| 2026-04-30 18:49 | -8.54038 | -61.39363 | 34870 ft | 458 kts | 193° |
| 2026-04-30 18:49 | -8.60233 | -61.40776 | 34872 ft | 458 kts | 193° |
| 2026-04-30 18:50 | -8.66427 | -61.42184 | 34871 ft | 458 kts | 193° |
| 2026-04-30 18:50 | -8.72657 | -61.43611 | 34867 ft | 458 kts | 193° |
| 2026-04-30 18:51 | -8.78878 | -61.45034 | 34867 ft | 458 kts | 193° |
| 2026-04-30 18:51 | -8.85068 | -61.46441 | 34869 ft | 458 kts | 193° |
| 2026-04-30 18:52 | -8.91306 | -61.47854 | 34870 ft | 459 kts | 193° |
| 2026-04-30 18:52 | -8.97542 | -61.49277 | 34869 ft | 458 kts | 193° |
| 2026-04-30 18:53 | -9.03738 | -61.50693 | 34869 ft | 458 kts | 192° |
| 2026-04-30 18:53 | -9.09969 | -61.52119 | 34871 ft | 458 kts | 193° |
| 2026-04-30 18:54 | -9.16173 | -61.53542 | 34872 ft | 458 kts | 192° |
| 2026-04-30 18:54 | -9.22379 | -61.54950 | 34872 ft | 458 kts | 192° |
| 2026-04-30 18:55 | -9.28619 | -61.56351 | 34873 ft | 458 kts | 192° |
| 2026-04-30 18:55 | -9.37935 | -61.58447 | 34870 ft | 458 kts | 192° |
| 2026-04-30 18:56 | -9.47278 | -61.60555 | 34871 ft | 458 kts | 192° |
| 2026-04-30 18:57 | -9.56580 | -61.62659 | 34871 ft | 458 kts | 192° |
| 2026-04-30 18:57 | -9.62802 | -61.64073 | 34868 ft | 457 kts | 193° |
| 2026-04-30 18:58 | -9.72063 | -61.66317 | 34866 ft | 457 kts | 194° |
| 2026-04-30 18:59 | -9.81354 | -61.68609 | 34864 ft | 457 kts | 193° |
| 2026-04-30 19:00 | -9.93733 | -61.71604 | 34863 ft | 458 kts | 193° |
| 2026-04-30 19:01 | -10.06131 | -61.74620 | 34857 ft | 459 kts | 194° |
| 2026-04-30 19:02 | -10.15432 | -61.76891 | 34866 ft | 459 kts | 194° |
| 2026-04-30 19:03 | -10.27886 | -61.79920 | 34869 ft | 460 kts | 194° |
| 2026-04-30 19:04 | -10.40304 | -61.82952 | 34871 ft | 460 kts | 194° |
| 2026-04-30 19:05 | -10.52764 | -61.85988 | 34876 ft | 460 kts | 194° |
| 2026-04-30 19:06 | -10.65201 | -61.89031 | 34874 ft | 460 kts | 194° |
| 2026-04-30 19:06 | -10.74522 | -61.91302 | 34874 ft | 460 kts | 194° |
| 2026-04-30 19:07 | -10.83890 | -61.93603 | 34873 ft | 460 kts | 194° |
| 2026-04-30 19:08 | -10.96431 | -61.96179 | 34870 ft | 461 kts | 188° |
| 2026-04-30 19:09 | -11.05922 | -61.97527 | 34870 ft | 460 kts | 188° |
| 2026-04-30 19:09 | -11.12268 | -61.98495 | 34869 ft | 460 kts | 189° |
| 2026-04-30 19:10 | -11.24902 | -62.00539 | 34871 ft | 460 kts | 189° |
| 2026-04-30 19:11 | -11.34412 | -62.02046 | 34869 ft | 460 kts | 189° |
| 2026-04-30 19:12 | -11.40707 | -62.03037 | 34869 ft | 459 kts | 189° |
| 2026-04-30 19:12 | -11.47027 | -62.04042 | 34870 ft | 459 kts | 189° |
| 2026-04-30 19:13 | -11.59662 | -62.06062 | 34867 ft | 459 kts | 189° |
| 2026-04-30 19:14 | -11.65982 | -62.07068 | 34874 ft | 460 kts | 189° |
| 2026-04-30 19:14 | -11.72281 | -62.08066 | 34877 ft | 460 kts | 189° |
| 2026-04-30 19:15 | -11.78608 | -62.09110 | 34879 ft | 460 kts | 191° |
| 2026-04-30 19:15 | -11.88052 | -62.10953 | 34883 ft | 460 kts | 192° |
| 2026-04-30 19:16 | -11.94318 | -62.12187 | 34888 ft | 461 kts | 191° |
| 2026-04-30 19:17 | -12.03782 | -62.13978 | 34888 ft | 461 kts | 191° |
| 2026-04-30 19:17 | -12.13212 | -62.15760 | 34894 ft | 461 kts | 191° |
| 2026-04-30 19:18 | -12.22690 | -62.17567 | 34893 ft | 461 kts | 191° |
| 2026-04-30 19:19 | -12.28972 | -62.18761 | 34890 ft | 461 kts | 191° |
| 2026-04-30 19:19 | -12.38453 | -62.20565 | 34889 ft | 461 kts | 191° |
| 2026-04-30 19:20 | -12.44746 | -62.21770 | 34884 ft | 461 kts | 191° |
| 2026-04-30 19:21 | -12.54228 | -62.23576 | 34886 ft | 461 kts | 191° |
| 2026-04-30 19:22 | -12.66817 | -62.25980 | 34881 ft | 461 kts | 191° |
| 2026-04-30 19:23 | -12.85757 | -62.29598 | 34880 ft | 461 kts | 191° |
| 2026-04-30 19:24 | -12.95199 | -62.31409 | 34881 ft | 461 kts | 191° |
| 2026-04-30 19:25 | -13.09920 | -62.34237 | 34881 ft | 461 kts | 191° |
| 2026-04-30 19:26 | -13.22519 | -62.36589 | 34882 ft | 461 kts | 191° |
| 2026-04-30 19:27 | -13.32028 | -62.38249 | 34882 ft | 461 kts | 191° |
| 2026-04-30 19:28 | -13.41496 | -62.39923 | 34883 ft | 461 kts | 191° |
| 2026-04-30 19:29 | -13.54108 | -62.42183 | 34884 ft | 461 kts | 191° |
| 2026-04-30 19:30 | -13.66729 | -62.44430 | 34884 ft | 461 kts | 191° |
| 2026-04-30 19:31 | -13.79384 | -62.46685 | 34883 ft | 461 kts | 191° |
| 2026-04-30 19:31 | -13.88850 | -62.48353 | 34884 ft | 461 kts | 191° |
| 2026-04-30 19:32 | -13.95176 | -62.49474 | 34884 ft | 461 kts | 191° |
| 2026-04-30 19:32 | -14.01470 | -62.50590 | 34885 ft | 461 kts | 191° |
| 2026-04-30 19:33 | -14.07805 | -62.51714 | 34887 ft | 461 kts | 191° |
| 2026-04-30 19:33 | -14.14093 | -62.52826 | 34890 ft | 461 kts | 191° |
| 2026-04-30 19:34 | -14.20436 | -62.53957 | 34889 ft | 461 kts | 191° |
| 2026-04-30 19:35 | -14.29903 | -62.55642 | 34891 ft | 461 kts | 191° |
| 2026-04-30 19:35 | -14.36246 | -62.56770 | 34881 ft | 464 kts | 191° |
| 2026-04-30 19:36 | -14.42725 | -62.57921 | 34866 ft | 480 kts | 191° |
| 2026-04-30 19:36 | -14.52745 | -62.59704 | 34867 ft | 496 kts | 191° |
| 2026-04-30 19:37 | -14.59627 | -62.60933 | 34867 ft | 502 kts | 191° |
| 2026-04-30 19:37 | -14.66489 | -62.62162 | 34868 ft | 503 kts | 191° |
| 2026-04-30 19:38 | -14.73403 | -62.63403 | 34865 ft | 504 kts | 191° |
| 2026-04-30 19:38 | -14.80280 | -62.64629 | 34871 ft | 504 kts | 191° |
| 2026-04-30 19:39 | -14.87200 | -62.65857 | 34886 ft | 505 kts | 191° |
| 2026-04-30 19:39 | -14.94114 | -62.67088 | 34890 ft | 506 kts | 191° |
| 2026-04-30 19:40 | -15.01060 | -62.68332 | 34894 ft | 506 kts | 192° |
| 2026-04-30 19:40 | -15.08007 | -62.69579 | 34898 ft | 506 kts | 192° |
| 2026-04-30 19:41 | -15.14907 | -62.70808 | 34900 ft | 506 kts | 191° |
| 2026-04-30 19:41 | -15.21868 | -62.72040 | 34904 ft | 506 kts | 191° |
| 2026-04-30 19:42 | -15.28831 | -62.73267 | 34906 ft | 507 kts | 191° |
| 2026-04-30 19:42 | -15.35745 | -62.74493 | 34909 ft | 507 kts | 192° |
| 2026-04-30 19:43 | -15.42713 | -62.75729 | 34912 ft | 507 kts | 192° |
| 2026-04-30 19:44 | -15.53129 | -62.77579 | 34916 ft | 507 kts | 192° |
| 2026-04-30 19:44 | -15.60111 | -62.78827 | 34919 ft | 508 kts | 192° |
| 2026-04-30 19:45 | -15.67044 | -62.80063 | 34923 ft | 508 kts | 192° |
| 2026-04-30 19:45 | -15.74035 | -62.81312 | 34930 ft | 508 kts | 192° |
| 2026-04-30 19:46 | -15.80962 | -62.82546 | 34928 ft | 508 kts | 192° |
| 2026-04-30 19:46 | -15.87940 | -62.83779 | 34930 ft | 508 kts | 192° |
| 2026-04-30 19:47 | -15.94919 | -62.85019 | 34937 ft | 508 kts | 192° |
| 2026-04-30 19:47 | -16.01856 | -62.86270 | 34937 ft | 509 kts | 192° |
| 2026-04-30 19:48 | -16.08845 | -62.87527 | 34942 ft | 508 kts | 192° |
| 2026-04-30 19:48 | -16.15792 | -62.88768 | 34940 ft | 508 kts | 192° |
| 2026-04-30 19:49 | -16.22774 | -62.90011 | 34943 ft | 508 kts | 192° |
| 2026-04-30 19:49 | -16.33245 | -62.91897 | 34940 ft | 509 kts | 192° |
| 2026-04-30 19:50 | -16.40186 | -62.93123 | 34952 ft | 509 kts | 192° |
| 2026-04-30 19:50 | -16.47186 | -62.94342 | 34952 ft | 509 kts | 192° |
| 2026-04-30 19:51 | -16.54149 | -62.95567 | 34959 ft | 509 kts | 192° |
| 2026-04-30 19:51 | -16.61153 | -62.96793 | 34956 ft | 508 kts | 192° |
| 2026-04-30 19:52 | -16.68132 | -62.98017 | 34955 ft | 508 kts | 192° |
| 2026-04-30 19:52 | -16.75067 | -62.99249 | 34959 ft | 509 kts | 192° |
| 2026-04-30 19:53 | -16.82059 | -63.00481 | 34961 ft | 509 kts | 192° |
| 2026-04-30 19:53 | -16.89057 | -63.01718 | 34959 ft | 509 kts | 192° |
| 2026-04-30 19:54 | -16.96002 | -63.02950 | 34958 ft | 509 kts | 192° |
| 2026-04-30 19:54 | -17.02995 | -63.04192 | 34961 ft | 509 kts | 192° |
| 2026-04-30 19:55 | -17.09942 | -63.05413 | 34966 ft | 509 kts | 192° |
| 2026-04-30 19:55 | -17.16928 | -63.06653 | 34967 ft | 509 kts | 193° |
| 2026-04-30 19:56 | -17.23924 | -63.07905 | 34971 ft | 509 kts | 193° |
| 2026-04-30 19:56 | -17.30875 | -63.09139 | 34975 ft | 508 kts | 193° |
| 2026-04-30 19:57 | -17.37864 | -63.10378 | 34978 ft | 509 kts | 193° |
| 2026-04-30 19:57 | -17.44812 | -63.11610 | 34977 ft | 508 kts | 193° |
| 2026-04-30 19:58 | -17.51796 | -63.12855 | 34977 ft | 508 kts | 193° |
| 2026-04-30 19:58 | -17.58776 | -63.14095 | 34974 ft | 508 kts | 193° |
| 2026-04-30 19:59 | -17.65606 | -63.15716 | 34974 ft | 504 kts | 200° |
| 2026-04-30 20:00 | -17.75698 | -63.18926 | 34976 ft | 504 kts | 200° |
| 2026-04-30 20:00 | -17.82376 | -63.21053 | 34974 ft | 504 kts | 200° |
| 2026-04-30 20:01 | -17.92438 | -63.24231 | 34967 ft | 505 kts | 200° |
| 2026-04-30 20:01 | -17.99174 | -63.26373 | 34970 ft | 505 kts | 200° |
| 2026-04-30 20:02 | -18.09236 | -63.29583 | 34978 ft | 506 kts | 200° |
| 2026-04-30 20:03 | -18.19367 | -63.32812 | 34976 ft | 507 kts | 201° |
| 2026-04-30 20:03 | -18.26070 | -63.34953 | 34944 ft | 505 kts | 201° |
| 2026-04-30 20:04 | -18.32826 | -63.37105 | 34947 ft | 506 kts | 201° |
| 2026-04-30 20:05 | -18.42889 | -63.40314 | 34945 ft | 505 kts | 201° |
| 2026-04-30 20:05 | -18.52999 | -63.43560 | 34953 ft | 505 kts | 201° |
| 2026-04-30 20:06 | -18.59698 | -63.45707 | 34960 ft | 506 kts | 201° |
| 2026-04-30 20:06 | -18.66446 | -63.47869 | 34964 ft | 506 kts | 201° |
| 2026-04-30 20:07 | -18.73193 | -63.50027 | 34976 ft | 506 kts | 201° |
| 2026-04-30 20:08 | -18.83235 | -63.53249 | 34941 ft | 503 kts | 201° |
| 2026-04-30 20:08 | -18.89881 | -63.55394 | 34942 ft | 502 kts | 201° |
| 2026-04-30 20:09 | -18.96574 | -63.57537 | 34939 ft | 502 kts | 201° |
| 2026-04-30 20:09 | -19.06600 | -63.60675 | 34939 ft | 502 kts | 201° |
| 2026-04-30 20:10 | -19.16647 | -63.63842 | 34944 ft | 502 kts | 201° |
| 2026-04-30 20:11 | -19.26671 | -63.67022 | 34948 ft | 503 kts | 202° |
| 2026-04-30 20:11 | -19.33397 | -63.69148 | 34949 ft | 503 kts | 202° |
| 2026-04-30 20:12 | -19.43447 | -63.72332 | 34950 ft | 504 kts | 202° |
| 2026-04-30 20:13 | -19.50159 | -63.74465 | 34926 ft | 502 kts | 202° |
| 2026-04-30 20:13 | -19.56853 | -63.76592 | 34912 ft | 501 kts | 202° |
| 2026-04-30 20:14 | -19.63516 | -63.78717 | 34912 ft | 501 kts | 202° |
| 2026-04-30 20:14 | -19.70200 | -63.80848 | 34911 ft | 501 kts | 202° |
| 2026-04-30 20:15 | -19.76856 | -63.82965 | 34908 ft | 502 kts | 202° |
| 2026-04-30 20:15 | -19.83572 | -63.85108 | 34921 ft | 503 kts | 202° |
| 2026-04-30 20:16 | -19.90241 | -63.87232 | 34925 ft | 503 kts | 202° |
| 2026-04-30 20:16 | -19.96954 | -63.89369 | 34923 ft | 503 kts | 202° |
| 2026-04-30 20:17 | -20.03671 | -63.91496 | 34915 ft | 503 kts | 202° |
| 2026-04-30 20:17 | -20.10362 | -63.93614 | 34912 ft | 504 kts | 202° |
| 2026-04-30 20:18 | -20.17052 | -63.95740 | 34914 ft | 504 kts | 202° |
| 2026-04-30 20:18 | -20.23778 | -63.97881 | 34914 ft | 504 kts | 202° |
| 2026-04-30 20:19 | -20.30510 | -64.00025 | 34912 ft | 504 kts | 202° |
| 2026-04-30 20:19 | -20.37189 | -64.02151 | 34912 ft | 504 kts | 202° |
| 2026-04-30 20:20 | -20.43926 | -64.04297 | 34905 ft | 504 kts | 203° |
| 2026-04-30 20:20 | -20.50664 | -64.06442 | 34907 ft | 505 kts | 203° |
| 2026-04-30 20:21 | -20.57358 | -64.08581 | 34901 ft | 504 kts | 203° |
| 2026-04-30 20:21 | -20.62970 | -64.10375 | 34900 ft | 505 kts | 203° |
| 2026-04-30 20:22 | -20.70806 | -64.12872 | 34904 ft | 505 kts | 203° |
| 2026-04-30 20:22 | -20.77557 | -64.15015 | 34906 ft | 505 kts | 203° |
| 2026-04-30 20:23 | -20.83166 | -64.16798 | 34912 ft | 505 kts | 203° |
| 2026-04-30 20:23 | -20.89928 | -64.18952 | 34922 ft | 505 kts | 203° |
| 2026-04-30 20:24 | -20.96645 | -64.21087 | 34917 ft | 505 kts | 203° |
| 2026-04-30 20:24 | -21.03394 | -64.23237 | 34922 ft | 505 kts | 204° |
| 2026-04-30 20:25 | -21.13448 | -64.26436 | 34901 ft | 502 kts | 203° |
| 2026-04-30 20:26 | -21.23507 | -64.29649 | 34914 ft | 501 kts | 204° |
| 2026-04-30 20:26 | -21.33448 | -64.32817 | 35281 ft | 494 kts | 204° |
| 2026-04-30 20:27 | -21.40037 | -64.34917 | 35886 ft | 491 kts | 204° |
| 2026-04-30 20:27 | -21.46527 | -64.36985 | 36541 ft | 486 kts | 204° |
| 2026-04-30 20:28 | -21.52986 | -64.39038 | 37276 ft | 480 kts | 206° |
| 2026-04-30 20:28 | -21.59334 | -64.41040 | 38039 ft | 470 kts | 204° |
| 2026-04-30 20:29 | -21.65540 | -64.42987 | 38848 ft | 462 kts | 205° |
| 2026-04-30 20:30 | -21.74656 | -64.45813 | 40011 ft | 443 kts | 205° |
| 2026-04-30 20:30 | -21.83262 | -64.48420 | 41307 ft | 416 kts | 204° |
| 2026-04-30 20:31 | -21.91456 | -64.50827 | 41750 ft | 414 kts | 204° |
| 2026-04-30 20:32 | -22.00908 | -64.53826 | 37865 ft | 520 kts | 205° |
| 2026-04-30 20:32 | -22.07591 | -64.55998 | 39634 ft | 480 kts | 205° |
| 2026-04-30 20:33 | -22.10716 | -64.56995 | 40135 ft | 454 kts | 206° |
| 2026-04-30 20:33 | -22.16672 | -64.59131 | 39312 ft | 450 kts | 208° |
| 2026-04-30 20:33 | -22.19637 | -64.60205 | 38981 ft | 446 kts | 207° |
| 2026-04-30 20:34 | -22.25482 | -64.62177 | 38926 ft | 442 kts | 206° |
| 2026-04-30 20:35 | -22.34361 | -64.65038 | 38925 ft | 442 kts | 206° |
| 2026-04-30 20:35 | -22.43242 | -64.67910 | 38923 ft | 446 kts | 206° |
| 2026-04-30 20:36 | -22.49192 | -64.69855 | 38931 ft | 446 kts | 206° |
| 2026-04-30 20:37 | -22.58090 | -64.72765 | 38936 ft | 447 kts | 206° |
| 2026-04-30 20:37 | -22.64042 | -64.74715 | 38918 ft | 446 kts | 206° |
| 2026-04-30 20:38 | -22.69971 | -64.76656 | 38944 ft | 448 kts | 206° |
| 2026-04-30 20:38 | -22.75946 | -64.78621 | 38959 ft | 447 kts | 206° |
| 2026-04-30 20:39 | -22.84838 | -64.81544 | 38962 ft | 446 kts | 206° |
| 2026-04-30 20:40 | -22.93749 | -64.84460 | 38972 ft | 444 kts | 206° |
| 2026-04-30 20:40 | -22.99668 | -64.86397 | 38975 ft | 443 kts | 206° |
| 2026-04-30 20:41 | -23.08471 | -64.89299 | 38976 ft | 441 kts | 206° |
| 2026-04-30 20:41 | -23.14324 | -64.91227 | 38944 ft | 434 kts | 207° |
| 2026-04-30 20:42 | -23.20116 | -64.93143 | 38939 ft | 435 kts | 206° |
| 2026-04-30 20:43 | -23.28773 | -64.96005 | 38946 ft | 436 kts | 206° |
| 2026-04-30 20:43 | -23.34593 | -64.97930 | 38949 ft | 436 kts | 206° |
| 2026-04-30 20:44 | -23.43247 | -65.00796 | 38923 ft | 431 kts | 207° |
| 2026-04-30 20:45 | -23.54675 | -65.04589 | 38922 ft | 431 kts | 207° |
| 2026-04-30 20:45 | -23.60441 | -65.06507 | 38928 ft | 434 kts | 206° |
| 2026-04-30 20:46 | -23.72009 | -65.10343 | 38947 ft | 436 kts | 206° |
| 2026-04-30 20:47 | -23.80732 | -65.13251 | 38957 ft | 436 kts | 206° |
| 2026-04-30 20:48 | -23.89426 | -65.16157 | 38971 ft | 437 kts | 206° |
| 2026-04-30 20:48 | -23.95251 | -65.18101 | 38975 ft | 437 kts | 206° |
| 2026-04-30 20:49 | -24.01042 | -65.20040 | 38989 ft | 438 kts | 206° |
| 2026-04-30 20:50 | -24.09787 | -65.22963 | 38989 ft | 438 kts | 206° |
| 2026-04-30 20:50 | -24.15620 | -65.24918 | 38987 ft | 437 kts | 206° |
| 2026-04-30 20:51 | -24.21408 | -65.26855 | 38986 ft | 437 kts | 206° |
| 2026-04-30 20:51 | -24.30158 | -65.29790 | 38979 ft | 438 kts | 207° |
| 2026-04-30 20:52 | -24.35992 | -65.31764 | 38971 ft | 438 kts | 207° |
| 2026-04-30 20:53 | -24.44731 | -65.34709 | 38971 ft | 437 kts | 206° |
| 2026-04-30 20:53 | -24.50515 | -65.36660 | 38991 ft | 437 kts | 206° |
| 2026-04-30 20:54 | -24.59217 | -65.39593 | 38992 ft | 437 kts | 206° |
| 2026-04-30 20:55 | -24.67956 | -65.42544 | 38990 ft | 437 kts | 206° |
| 2026-04-30 20:55 | -24.73771 | -65.44508 | 38991 ft | 437 kts | 206° |
| 2026-04-30 20:56 | -24.82467 | -65.47453 | 38997 ft | 436 kts | 206° |
| 2026-04-30 20:56 | -24.87893 | -65.50086 | 38992 ft | 419 kts | 220° |
| 2026-04-30 20:57 | -24.90414 | -65.51709 | 38994 ft | 419 kts | 220° |
| 2026-04-30 20:57 | -24.95424 | -65.54908 | 38994 ft | 419 kts | 220° |
| 2026-04-30 20:58 | -25.03018 | -65.59750 | 38990 ft | 420 kts | 220° |
| 2026-04-30 20:58 | -25.08086 | -65.62985 | 38984 ft | 419 kts | 220° |
| 2026-04-30 20:59 | -25.15640 | -65.67832 | 38976 ft | 420 kts | 220° |
| 2026-04-30 21:00 | -25.25737 | -65.74303 | 38959 ft | 418 kts | 220° |
| 2026-04-30 21:01 | -25.33258 | -65.79144 | 38934 ft | 418 kts | 221° |
| 2026-04-30 21:02 | -25.40819 | -65.84006 | 38931 ft | 418 kts | 220° |
| 2026-04-30 21:02 | -25.45814 | -65.87226 | 38929 ft | 418 kts | 220° |
| 2026-04-30 21:03 | -25.50852 | -65.90481 | 38909 ft | 418 kts | 220° |
| 2026-04-30 21:03 | -25.55889 | -65.93733 | 38909 ft | 419 kts | 220° |
| 2026-04-30 21:04 | -25.60892 | -65.96964 | 38903 ft | 418 kts | 220° |
| 2026-04-30 21:04 | -25.68455 | -66.01861 | 38900 ft | 418 kts | 220° |
| 2026-04-30 21:05 | -25.73449 | -66.05092 | 38893 ft | 418 kts | 220° |
| 2026-04-30 21:05 | -25.78478 | -66.08348 | 38890 ft | 418 kts | 220° |
| 2026-04-30 21:06 | -25.83516 | -66.11620 | 38894 ft | 419 kts | 220° |
| 2026-04-30 21:06 | -25.88541 | -66.14887 | 38902 ft | 419 kts | 220° |
| 2026-04-30 21:07 | -25.93542 | -66.18138 | 38899 ft | 419 kts | 220° |
| 2026-04-30 21:07 | -25.98587 | -66.21421 | 38912 ft | 419 kts | 220° |
| 2026-04-30 21:08 | -26.03583 | -66.24680 | 38920 ft | 418 kts | 220° |
| 2026-04-30 21:08 | -26.08603 | -66.27965 | 38929 ft | 419 kts | 220° |
| 2026-04-30 21:09 | -26.13632 | -66.31261 | 38941 ft | 418 kts | 220° |
| 2026-04-30 21:09 | -26.18627 | -66.34520 | 38951 ft | 418 kts | 221° |
| 2026-04-30 21:10 | -26.23608 | -66.37772 | 38952 ft | 417 kts | 220° |
| 2026-04-30 21:10 | -26.27781 | -66.40513 | 38955 ft | 417 kts | 220° |
| 2026-04-30 21:11 | -26.33618 | -66.44344 | 38957 ft | 418 kts | 220° |
| 2026-04-30 21:11 | -26.37791 | -66.47082 | 38952 ft | 418 kts | 220° |
| 2026-04-30 21:12 | -26.42813 | -66.50377 | 38945 ft | 418 kts | 220° |
| 2026-04-30 21:12 | -26.47835 | -66.53676 | 38932 ft | 417 kts | 220° |
| 2026-04-30 21:13 | -26.52800 | -66.56948 | 38923 ft | 417 kts | 220° |
| 2026-04-30 21:13 | -26.57806 | -66.60260 | 38907 ft | 416 kts | 220° |
| 2026-04-30 21:14 | -26.62812 | -66.63563 | 38905 ft | 417 kts | 220° |
| 2026-04-30 21:14 | -26.67777 | -66.66840 | 38891 ft | 416 kts | 220° |
| 2026-04-30 21:15 | -26.72778 | -66.70151 | 38879 ft | 416 kts | 220° |
| 2026-04-30 21:15 | -26.77739 | -66.73429 | 38872 ft | 416 kts | 220° |
| 2026-04-30 21:16 | -26.82729 | -66.76738 | 38861 ft | 416 kts | 220° |
| 2026-04-30 21:16 | -26.87702 | -66.80037 | 38849 ft | 415 kts | 220° |
| 2026-04-30 21:17 | -26.92640 | -66.83316 | 38849 ft | 414 kts | 220° |
| 2026-04-30 21:17 | -26.97612 | -66.86618 | 38841 ft | 414 kts | 220° |
| 2026-04-30 21:18 | -27.02546 | -66.89896 | 38840 ft | 415 kts | 220° |
| 2026-04-30 21:18 | -27.07511 | -66.93209 | 38839 ft | 414 kts | 220° |
| 2026-04-30 21:19 | -27.12484 | -66.96524 | 38841 ft | 414 kts | 220° |
| 2026-04-30 21:19 | -27.17421 | -66.99817 | 38840 ft | 415 kts | 220° |
| 2026-04-30 21:20 | -27.22386 | -67.03137 | 38843 ft | 414 kts | 219° |
| 2026-04-30 21:20 | -27.27341 | -67.06456 | 38843 ft | 414 kts | 220° |
| 2026-04-30 21:21 | -27.32304 | -67.09772 | 38842 ft | 413 kts | 219° |
| 2026-04-30 21:22 | -27.39704 | -67.14725 | 38816 ft | 414 kts | 220° |
| 2026-04-30 21:23 | -27.49612 | -67.21394 | 38816 ft | 417 kts | 219° |
| 2026-04-30 21:23 | -27.57024 | -67.26375 | 38789 ft | 415 kts | 219° |
| 2026-04-30 21:24 | -27.61981 | -67.29713 | 38809 ft | 415 kts | 219° |
| 2026-04-30 21:24 | -27.66952 | -67.33060 | 38813 ft | 416 kts | 219° |
| 2026-04-30 21:25 | -27.74376 | -67.38077 | 38799 ft | 416 kts | 219° |
| 2026-04-30 21:26 | -27.81842 | -67.43144 | 38800 ft | 417 kts | 219° |
| 2026-04-30 21:27 | -27.89322 | -67.48200 | 38796 ft | 416 kts | 219° |
| 2026-04-30 21:27 | -27.94257 | -67.51551 | 38792 ft | 416 kts | 219° |
| 2026-04-30 21:28 | -28.01700 | -67.56608 | 38801 ft | 416 kts | 219° |
| 2026-04-30 21:29 | -28.09111 | -67.61651 | 38804 ft | 415 kts | 219° |
| 2026-04-30 21:30 | -28.21498 | -67.70029 | 38809 ft | 414 kts | 218° |
| 2026-04-30 21:31 | -28.33855 | -67.78347 | 38816 ft | 413 kts | 218° |
| 2026-04-30 21:32 | -28.41294 | -67.83354 | 38813 ft | 414 kts | 218° |
| 2026-04-30 21:32 | -28.46221 | -67.86675 | 38809 ft | 414 kts | 219° |
| 2026-04-30 21:33 | -28.53643 | -67.91703 | 38802 ft | 413 kts | 218° |
| 2026-04-30 21:34 | -28.58577 | -67.95049 | 38801 ft | 413 kts | 218° |
| 2026-04-30 21:34 | -28.65957 | -68.00055 | 38799 ft | 413 kts | 218° |
| 2026-04-30 21:35 | -28.70895 | -68.03413 | 38795 ft | 413 kts | 218° |
| 2026-04-30 21:35 | -28.75831 | -68.06776 | 38793 ft | 413 kts | 218° |
| 2026-04-30 21:36 | -28.80736 | -68.10125 | 38787 ft | 413 kts | 218° |
| 2026-04-30 21:37 | -28.90588 | -68.16855 | 38778 ft | 412 kts | 218° |
| 2026-04-30 21:37 | -28.95490 | -68.20202 | 38777 ft | 412 kts | 218° |
| 2026-04-30 21:38 | -29.00405 | -68.23569 | 38777 ft | 411 kts | 219° |
| 2026-04-30 21:38 | -29.05313 | -68.26933 | 38777 ft | 411 kts | 219° |
| 2026-04-30 21:39 | -29.10220 | -68.30300 | 38774 ft | 410 kts | 219° |
| 2026-04-30 21:39 | -29.15087 | -68.33644 | 38773 ft | 410 kts | 219° |
| 2026-04-30 21:40 | -29.19966 | -68.37007 | 38767 ft | 409 kts | 219° |
| 2026-04-30 21:40 | -29.24849 | -68.40373 | 38764 ft | 409 kts | 219° |
| 2026-04-30 21:41 | -29.29709 | -68.43710 | 38771 ft | 410 kts | 219° |
| 2026-04-30 21:41 | -29.34587 | -68.47076 | 38759 ft | 409 kts | 218° |
| 2026-04-30 21:42 | -29.39465 | -68.50450 | 38759 ft | 408 kts | 218° |
| 2026-04-30 21:42 | -29.44307 | -68.53800 | 38763 ft | 408 kts | 219° |
| 2026-04-30 21:43 | -29.49184 | -68.57172 | 38765 ft | 408 kts | 219° |
| 2026-04-30 21:43 | -29.54018 | -68.60522 | 38768 ft | 408 kts | 219° |
| 2026-04-30 21:44 | -29.58868 | -68.63929 | 38775 ft | 407 kts | 219° |
| 2026-04-30 21:44 | -29.63674 | -68.67380 | 38783 ft | 407 kts | 219° |
| 2026-04-30 21:45 | -29.68470 | -68.70828 | 38788 ft | 408 kts | 219° |
| 2026-04-30 21:45 | -29.73269 | -68.74263 | 38791 ft | 408 kts | 219° |
| 2026-04-30 21:46 | -29.78112 | -68.77721 | 38796 ft | 408 kts | 219° |
| 2026-04-30 21:46 | -29.82920 | -68.81167 | 38796 ft | 408 kts | 219° |
| 2026-04-30 21:47 | -29.87718 | -68.84622 | 38796 ft | 408 kts | 220° |
| 2026-04-30 21:47 | -29.92550 | -68.88099 | 38792 ft | 409 kts | 219° |
| 2026-04-30 21:48 | -29.97389 | -68.91573 | 38778 ft | 409 kts | 219° |
| 2026-04-30 21:48 | -30.02194 | -68.95034 | 38780 ft | 409 kts | 219° |
| 2026-04-30 21:49 | -30.07030 | -68.98528 | 38779 ft | 409 kts | 219° |
| 2026-04-30 21:49 | -30.11842 | -69.02001 | 38771 ft | 409 kts | 219° |
| 2026-04-30 21:50 | -30.16675 | -69.05496 | 38781 ft | 409 kts | 219° |
| 2026-04-30 21:50 | -30.21501 | -69.08993 | 38776 ft | 409 kts | 219° |
| 2026-04-30 21:51 | -30.26311 | -69.12483 | 38777 ft | 409 kts | 219° |
| 2026-04-30 21:51 | -30.31147 | -69.15992 | 38792 ft | 409 kts | 219° |
| 2026-04-30 21:52 | -30.35948 | -69.19479 | 38795 ft | 409 kts | 219° |
| 2026-04-30 21:52 | -30.40776 | -69.22996 | 38799 ft | 409 kts | 219° |
| 2026-04-30 21:53 | -30.45599 | -69.26511 | 38812 ft | 409 kts | 219° |
| 2026-04-30 21:53 | -30.50390 | -69.29997 | 38813 ft | 408 kts | 219° |
| 2026-04-30 21:54 | -30.55209 | -69.33505 | 38822 ft | 408 kts | 219° |
| 2026-04-30 21:54 | -30.60027 | -69.37023 | 38832 ft | 409 kts | 219° |
| 2026-04-30 21:55 | -30.64809 | -69.40528 | 38841 ft | 409 kts | 219° |
| 2026-04-30 21:55 | -30.69618 | -69.44060 | 38847 ft | 409 kts | 219° |
| 2026-04-30 21:56 | -30.74438 | -69.47594 | 38850 ft | 409 kts | 219° |
| 2026-04-30 21:56 | -30.79228 | -69.51112 | 38857 ft | 410 kts | 218° |
| 2026-04-30 21:57 | -30.84055 | -69.54660 | 38863 ft | 410 kts | 218° |
| 2026-04-30 21:57 | -30.88884 | -69.58217 | 38866 ft | 410 kts | 218° |
| 2026-04-30 21:58 | -30.93676 | -69.61749 | 38874 ft | 410 kts | 218° |
| 2026-04-30 21:58 | -30.98497 | -69.65304 | 38882 ft | 409 kts | 218° |
| 2026-04-30 21:59 | -31.03310 | -69.68867 | 38897 ft | 409 kts | 218° |
| 2026-04-30 22:00 | -31.10526 | -69.74162 | 38923 ft | 409 kts | 218° |
| 2026-04-30 22:00 | -31.17747 | -69.79426 | 38947 ft | 408 kts | 218° |
| 2026-04-30 22:01 | -31.21747 | -69.82364 | 38959 ft | 408 kts | 218° |
| 2026-04-30 22:01 | -31.26570 | -69.85913 | 38977 ft | 408 kts | 218° |
| 2026-04-30 22:02 | -31.31387 | -69.89456 | 38997 ft | 408 kts | 218° |
| 2026-04-30 22:02 | -31.36223 | -69.93022 | 38406 ft | 421 kts | 217° |
| 2026-04-30 22:03 | -31.38697 | -69.94847 | 38034 ft | 420 kts | 217° |
| 2026-04-30 22:03 | -31.41171 | -69.96671 | 37653 ft | 420 kts | 217° |
| 2026-04-30 22:03 | -31.43636 | -69.98484 | 37278 ft | 416 kts | 218° |
| 2026-04-30 22:03 | -31.46089 | -70.00289 | 36899 ft | 413 kts | 218° |
| 2026-04-30 22:04 | -31.48513 | -70.02077 | 36502 ft | 409 kts | 218° |
| 2026-04-30 22:04 | -31.50917 | -70.03853 | 36116 ft | 406 kts | 218° |
| 2026-04-30 22:04 | -31.55666 | -70.07367 | 35295 ft | 401 kts | 218° |
| 2026-04-30 22:05 | -31.57991 | -70.09090 | 34887 ft | 398 kts | 218° |
| 2026-04-30 22:05 | -31.60329 | -70.10824 | 34445 ft | 396 kts | 218° |
| 2026-04-30 22:05 | -31.62650 | -70.12546 | 34007 ft | 393 kts | 217° |
| 2026-04-30 22:05 | -31.64954 | -70.14258 | 33538 ft | 390 kts | 218° |
| 2026-04-30 22:06 | -31.67236 | -70.15951 | 33104 ft | 387 kts | 218° |
| 2026-04-30 22:06 | -31.71750 | -70.19309 | 32243 ft | 380 kts | 218° |
| 2026-04-30 22:06 | -31.73974 | -70.20964 | 31814 ft | 376 kts | 218° |
| 2026-04-30 22:07 | -31.76152 | -70.22585 | 31408 ft | 373 kts | 218° |
| 2026-04-30 22:07 | -31.78339 | -70.24209 | 30991 ft | 369 kts | 218° |
| 2026-04-30 22:07 | -31.80509 | -70.25823 | 30589 ft | 367 kts | 218° |
| 2026-04-30 22:07 | -31.82659 | -70.27429 | 30195 ft | 364 kts | 218° |
| 2026-04-30 22:08 | -31.84789 | -70.29022 | 29767 ft | 360 kts | 218° |
| 2026-04-30 22:08 | -31.86872 | -70.30579 | 29368 ft | 356 kts | 218° |
| 2026-04-30 22:08 | -31.88956 | -70.32129 | 28984 ft | 352 kts | 218° |
| 2026-04-30 22:08 | -31.91028 | -70.33636 | 28622 ft | 348 kts | 217° |
| 2026-04-30 22:09 | -31.93098 | -70.35116 | 28256 ft | 346 kts | 217° |
| 2026-04-30 22:09 | -31.95158 | -70.36574 | 27885 ft | 343 kts | 217° |
| 2026-04-30 22:09 | -31.97171 | -70.38003 | 27529 ft | 340 kts | 217° |
| 2026-04-30 22:09 | -31.99195 | -70.39445 | 27169 ft | 338 kts | 217° |
| 2026-04-30 22:10 | -32.01203 | -70.40881 | 26809 ft | 336 kts | 217° |
| 2026-04-30 22:10 | -32.03197 | -70.42311 | 26437 ft | 334 kts | 217° |
| 2026-04-30 22:10 | -32.05175 | -70.43733 | 26077 ft | 332 kts | 217° |
| 2026-04-30 22:10 | -32.07143 | -70.45148 | 25704 ft | 330 kts | 217° |
| 2026-04-30 22:11 | -32.11019 | -70.47935 | 24949 ft | 326 kts | 217° |
| 2026-04-30 22:11 | -32.12951 | -70.49327 | 24569 ft | 324 kts | 217° |
| 2026-04-30 22:11 | -32.14871 | -70.50711 | 24188 ft | 322 kts | 217° |
| 2026-04-30 22:12 | -32.16781 | -70.52088 | 23803 ft | 320 kts | 217° |
| 2026-04-30 22:12 | -32.18685 | -70.53460 | 23383 ft | 319 kts | 217° |
| 2026-04-30 22:12 | -32.20578 | -70.54824 | 22981 ft | 318 kts | 217° |
| 2026-04-30 22:12 | -32.22435 | -70.56165 | 22599 ft | 316 kts | 217° |
| 2026-04-30 22:13 | -32.24310 | -70.57516 | 22219 ft | 315 kts | 217° |
| 2026-04-30 22:13 | -32.26238 | -70.58915 | 21816 ft | 341 kts | 217° |
| 2026-04-30 22:13 | -32.28354 | -70.60469 | 21387 ft | 374 kts | 216° |
| 2026-04-30 22:13 | -32.30608 | -70.62116 | 20629 ft | 385 kts | 216° |
| 2026-04-30 22:14 | -32.32929 | -70.63797 | 19495 ft | 397 kts | 215° |
| 2026-04-30 22:14 | -32.35300 | -70.65501 | 18625 ft | 400 kts | 215° |
| 2026-04-30 22:14 | -32.37684 | -70.67210 | 17795 ft | 399 kts | 215° |
| 2026-04-30 22:14 | -32.40026 | -70.68890 | 16994 ft | 396 kts | 215° |
| 2026-04-30 22:15 | -32.42379 | -70.70587 | 16205 ft | 394 kts | 215° |
| 2026-04-30 22:15 | -32.44716 | -70.72281 | 15465 ft | 391 kts | 215° |
| 2026-04-30 22:15 | -32.47001 | -70.73942 | 14725 ft | 388 kts | 215° |
| 2026-04-30 22:15 | -32.49298 | -70.75617 | 13977 ft | 385 kts | 215° |
| 2026-04-30 22:16 | -32.51579 | -70.77279 | 13166 ft | 383 kts | 215° |
| 2026-04-30 22:16 | -32.53846 | -70.78930 | 12399 ft | 380 kts | 215° |
| 2026-04-30 22:17 | -32.61168 | -70.82246 | 10908 ft | 386 kts | 181° |
| 2026-04-30 22:17 | -32.63863 | -70.82158 | 10427 ft | 385 kts | 179° |
| 2026-04-30 22:17 | -32.69212 | -70.81939 | 9451 ft | 380 kts | 179° |
| 2026-04-30 22:18 | -32.71812 | -70.81834 | 8939 ft | 376 kts | 179° |
| 2026-04-30 22:18 | -32.76989 | -70.81640 | 8099 ft | 367 kts | 179° |
| 2026-04-30 22:19 | -32.82107 | -70.81462 | 8041 ft | 367 kts | 179° |
| 2026-04-30 22:19 | -32.84627 | -70.81376 | 8035 ft | 366 kts | 179° |
| 2026-04-30 22:19 | -32.89743 | -70.81193 | 8040 ft | 366 kts | 179° |
| 2026-04-30 22:20 | -32.92211 | -70.81102 | 8039 ft | 342 kts | 179° |
| 2026-04-30 22:20 | -32.96740 | -70.80887 | 7366 ft | 322 kts | 178° |
| 2026-04-30 22:20 | -32.98978 | -70.80762 | 6825 ft | 321 kts | 177° |
| 2026-04-30 22:21 | -33.01208 | -70.80634 | 6266 ft | 318 kts | 177° |
| 2026-04-30 22:21 | -33.03418 | -70.80507 | 5690 ft | 316 kts | 177° |
| 2026-04-30 22:21 | -33.05582 | -70.80385 | 5121 ft | 304 kts | 177° |
| 2026-04-30 22:21 | -33.07611 | -70.80275 | 4994 ft | 273 kts | 177° |
| 2026-04-30 22:22 | -33.09417 | -70.80180 | 5031 ft | 254 kts | 177° |
| 2026-04-30 22:22 | -33.11144 | -70.80090 | 5037 ft | 237 kts | 177° |
| 2026-04-30 22:22 | -33.12741 | -70.80004 | 5046 ft | 232 kts | 177° |
| 2026-04-30 22:22 | -33.14385 | -70.79916 | 5048 ft | 240 kts | 177° |
| 2026-04-30 22:23 | -33.16066 | -70.79826 | 5037 ft | 242 kts | 177° |
| 2026-04-30 22:23 | -33.17754 | -70.79736 | 5044 ft | 242 kts | 177° |
| 2026-04-30 22:23 | -33.19430 | -70.79646 | 5008 ft | 235 kts | 177° |
| 2026-04-30 22:23 | -33.21024 | -70.79561 | 4784 ft | 223 kts | 177° |
| 2026-04-30 22:24 | -33.22498 | -70.79482 | 4522 ft | 204 kts | 177° |
| 2026-04-30 22:24 | -33.23846 | -70.79410 | 4283 ft | 181 kts | 177° |
| 2026-04-30 22:24 | -33.25033 | -70.79346 | 4042 ft | 160 kts | 177° |
| 2026-04-30 22:24 | -33.26087 | -70.79290 | 3835 ft | 143 kts | 177° |
| 2026-04-30 22:25 | -33.27047 | -70.79238 | 3653 ft | 134 kts | 177° |
| 2026-04-30 22:25 | -33.27967 | -70.79189 | 3486 ft | 130 kts | 178° |
| 2026-04-30 22:25 | -33.28869 | -70.79140 | 3315 ft | 129 kts | 178° |
| 2026-04-30 22:25 | -33.29758 | -70.79093 | 3142 ft | 127 kts | 178° |
| 2026-04-30 22:26 | -33.31510 | -70.78999 | 2790 ft | 125 kts | 179° |
| 2026-04-30 22:26 | -33.32377 | -70.78952 | 2618 ft | 125 kts | 179° |
| 2026-04-30 22:26 | -33.33244 | -70.78906 | 2451 ft | 124 kts | 180° |
| 2026-04-30 22:27 | -33.34103 | -70.78859 | 2282 ft | 124 kts | 181° |
| 2026-04-30 22:27 | -33.34959 | -70.78813 | 2124 ft | 122 kts | 180° |
| 2026-04-30 22:27 | -33.36664 | -70.78722 | 1813 ft | 123 kts | 180° |
| 2026-04-30 22:28 | -33.38362 | -70.78636 | 1594 ft | 107 kts | 178° |
| 2026-04-30 22:28 | -33.38968 | -70.78605 | 1595 ft | 69 kts | 177° |
| 2026-04-30 22:29 | -33.39687 | -70.78693 | 1595 ft | 4 kts | 206° |
| 2026-04-30 22:29 | -33.39701 | -70.78701 | 1595 ft | 1 kts | 206° |
| 2026-04-30 22:30 | -33.39982 | -70.78760 | 1592 ft | 12 kts | 178° |
| 2026-04-30 22:31 | -33.40129 | -70.78890 | 1594 ft | 7 kts | 270° |
| 2026-04-30 22:32 | -33.40128 | -70.78964 | 1596 ft | 5 kts | 270° |
| 2026-04-30 22:32 | -33.40151 | -70.79038 | 1591 ft | 2 kts | 216° |
| 2026-04-30 22:33 | -33.40212 | -70.79043 | 1594 ft | 0 kts | 180° |